sensor_id;sensor_type;location;lat;lon;timestamp;P1;durP1;ratioP1;P2;durP2;ratioP2
29280;SDS011;25048;49.590;11.026;2024-03-02T00:01:18;39.53;;;19.00;;
29280;SDS011;25048;49.590;11.026;2024-03-02T00:03:46;39.57;;;19.07;;
29280;SDS011;25048;49.590;11.026;2024-03-02T00:06:14;43.47;;;20.43;;
29280;SDS011;25048;49.590;11.026;2024-03-02T00:08:43;37.77;;;18.83;;
29280;SDS011;25048;49.590;11.026;2024-03-02T00:11:11;39.03;;;18.07;;
29280;SDS011;25048;49.590;11.026;2024-03-02T00:13:40;44.83;;;18.60;;
29280;SDS011;25048;49.590;11.026;2024-03-02T00:16:08;43.10;;;20.37;;
29280;SDS011;25048;49.590;11.026;2024-03-02T00:18:37;44.63;;;20.90;;
29280;SDS011;25048;49.590;11.026;2024-03-02T00:21:05;37.80;;;19.77;;
29280;SDS011;25048;49.590;11.026;2024-03-02T00:23:36;47.10;;;20.87;;
29280;SDS011;25048;49.590;11.026;2024-03-02T00:26:05;48.00;;;20.77;;
29280;SDS011;25048;49.590;11.026;2024-03-02T00:28:35;45.43;;;21.70;;
29280;SDS011;25048;49.590;11.026;2024-03-02T00:31:04;46.77;;;20.77;;
29280;SDS011;25048;49.590;11.026;2024-03-02T00:36:13;46.30;;;22.10;;
29280;SDS011;25048;49.590;11.026;2024-03-02T00:38:44;43.13;;;20.70;;
29280;SDS011;25048;49.590;11.026;2024-03-02T00:41:19;46.63;;;22.07;;
29280;SDS011;25048;49.590;11.026;2024-03-02T00:43:53;38.73;;;19.70;;
29280;SDS011;25048;49.590;11.026;2024-03-02T00:46:23;44.17;;;20.87;;
29280;SDS011;25048;49.590;11.026;2024-03-02T00:49:00;42.07;;;20.57;;
29280;SDS011;25048;49.590;11.026;2024-03-02T00:51:25;43.13;;;21.20;;
29280;SDS011;25048;49.590;11.026;2024-03-02T00:53:54;43.63;;;19.93;;
29280;SDS011;25048;49.590;11.026;2024-03-02T00:56:24;46.93;;;21.03;;
29280;SDS011;25048;49.590;11.026;2024-03-02T00:58:52;40.80;;;20.53;;
29280;SDS011;25048;49.590;11.026;2024-03-02T01:01:20;50.67;;;21.20;;
29280;SDS011;25048;49.590;11.026;2024-03-02T01:03:48;45.10;;;19.83;;
29280;SDS011;25048;49.590;11.026;2024-03-02T01:06:16;42.17;;;19.93;;
29280;SDS011;25048;49.590;11.026;2024-03-02T01:08:44;44.63;;;19.73;;
29280;SDS011;25048;49.590;11.026;2024-03-02T01:11:13;44.03;;;20.40;;
29280;SDS011;25048;49.590;11.026;2024-03-02T01:13:40;39.63;;;19.20;;
29280;SDS011;25048;49.590;11.026;2024-03-02T01:16:08;39.77;;;19.77;;
29280;SDS011;25048;49.590;11.026;2024-03-02T01:18:35;40.67;;;19.43;;
29280;SDS011;25048;49.590;11.026;2024-03-02T01:21:03;43.70;;;18.63;;
29280;SDS011;25048;49.590;11.026;2024-03-02T01:23:30;35.40;;;17.90;;
29280;SDS011;25048;49.590;11.026;2024-03-02T01:25:58;41.87;;;19.60;;
29280;SDS011;25048;49.590;11.026;2024-03-02T01:28:25;40.30;;;20.07;;
29280;SDS011;25048;49.590;11.026;2024-03-02T01:30:53;34.80;;;17.83;;
29280;SDS011;25048;49.590;11.026;2024-03-02T01:33:21;43.83;;;20.10;;
29280;SDS011;25048;49.590;11.026;2024-03-02T01:35:48;37.97;;;18.27;;
29280;SDS011;25048;49.590;11.026;2024-03-02T01:38:16;37.33;;;17.47;;
29280;SDS011;25048;49.590;11.026;2024-03-02T01:40:43;40.53;;;19.73;;
29280;SDS011;25048;49.590;11.026;2024-03-02T01:43:11;36.23;;;18.13;;
29280;SDS011;25048;49.590;11.026;2024-03-02T01:45:39;36.27;;;18.17;;
29280;SDS011;25048;49.590;11.026;2024-03-02T01:48:06;42.23;;;20.07;;
29280;SDS011;25048;49.590;11.026;2024-03-02T01:50:34;41.57;;;19.80;;
29280;SDS011;25048;49.590;11.026;2024-03-02T01:53:02;42.90;;;20.27;;
29280;SDS011;25048;49.590;11.026;2024-03-02T01:55:30;42.43;;;19.23;;
29280;SDS011;25048;49.590;11.026;2024-03-02T01:57:58;46.10;;;20.13;;
29280;SDS011;25048;49.590;11.026;2024-03-02T02:00:26;40.90;;;20.10;;
29280;SDS011;25048;49.590;11.026;2024-03-02T02:02:54;43.63;;;19.30;;
29280;SDS011;25048;49.590;11.026;2024-03-02T02:05:23;44.93;;;20.20;;
29280;SDS011;25048;49.590;11.026;2024-03-02T02:07:51;44.40;;;20.47;;
29280;SDS011;25048;49.590;11.026;2024-03-02T02:10:18;37.93;;;19.30;;
29280;SDS011;25048;49.590;11.026;2024-03-02T02:12:46;44.13;;;20.07;;
29280;SDS011;25048;49.590;11.026;2024-03-02T02:15:23;42.07;;;20.77;;
29280;SDS011;25048;49.590;11.026;2024-03-02T02:17:55;44.93;;;20.40;;
29280;SDS011;25048;49.590;11.026;2024-03-02T02:20:24;44.07;;;20.20;;
29280;SDS011;25048;49.590;11.026;2024-03-02T02:23:04;42.13;;;19.63;;
29280;SDS011;25048;49.590;11.026;2024-03-02T02:25:33;46.20;;;20.63;;
29280;SDS011;25048;49.590;11.026;2024-03-02T02:28:01;43.03;;;19.10;;
29280;SDS011;25048;49.590;11.026;2024-03-02T02:30:29;41.33;;;18.93;;
29280;SDS011;25048;49.590;11.026;2024-03-02T02:32:58;47.23;;;20.87;;
29280;SDS011;25048;49.590;11.026;2024-03-02T02:35:26;39.30;;;20.03;;
29280;SDS011;25048;49.590;11.026;2024-03-02T02:37:54;42.57;;;19.30;;
29280;SDS011;25048;49.590;11.026;2024-03-02T02:40:24;41.37;;;18.23;;
29280;SDS011;25048;49.590;11.026;2024-03-02T02:42:52;40.73;;;19.13;;
29280;SDS011;25048;49.590;11.026;2024-03-02T02:45:19;40.63;;;17.90;;
29280;SDS011;25048;49.590;11.026;2024-03-02T02:47:47;36.97;;;17.23;;
29280;SDS011;25048;49.590;11.026;2024-03-02T02:50:14;36.87;;;18.17;;
29280;SDS011;25048;49.590;11.026;2024-03-02T02:52:42;39.50;;;19.07;;
29280;SDS011;25048;49.590;11.026;2024-03-02T02:55:11;40.27;;;18.60;;
29280;SDS011;25048;49.590;11.026;2024-03-02T02:57:40;38.47;;;18.73;;
29280;SDS011;25048;49.590;11.026;2024-03-02T03:00:10;41.63;;;19.13;;
29280;SDS011;25048;49.590;11.026;2024-03-02T03:02:43;45.50;;;20.73;;
29280;SDS011;25048;49.590;11.026;2024-03-02T03:05:13;47.27;;;20.87;;
29280;SDS011;25048;49.590;11.026;2024-03-02T03:07:41;45.33;;;20.53;;
29280;SDS011;25048;49.590;11.026;2024-03-02T03:10:10;55.40;;;22.33;;
29280;SDS011;25048;49.590;11.026;2024-03-02T03:12:38;51.60;;;23.47;;
29280;SDS011;25048;49.590;11.026;2024-03-02T03:15:08;58.10;;;24.13;;
29280;SDS011;25048;49.590;11.026;2024-03-02T03:17:37;48.63;;;22.97;;
29280;SDS011;25048;49.590;11.026;2024-03-02T03:20:05;50.43;;;22.83;;
29280;SDS011;25048;49.590;11.026;2024-03-02T03:22:35;49.77;;;22.83;;
29280;SDS011;25048;49.590;11.026;2024-03-02T03:25:03;55.93;;;22.73;;
29280;SDS011;25048;49.590;11.026;2024-03-02T03:27:31;53.60;;;22.23;;
29280;SDS011;25048;49.590;11.026;2024-03-02T03:29:58;53.93;;;22.47;;
29280;SDS011;25048;49.590;11.026;2024-03-02T03:32:26;49.20;;;22.13;;
29280;SDS011;25048;49.590;11.026;2024-03-02T03:34:54;61.83;;;24.80;;
29280;SDS011;25048;49.590;11.026;2024-03-02T03:37:21;52.73;;;23.40;;
29280;SDS011;25048;49.590;11.026;2024-03-02T03:39:50;56.27;;;23.53;;
29280;SDS011;25048;49.590;11.026;2024-03-02T03:42:17;50.73;;;23.47;;
29280;SDS011;25048;49.590;11.026;2024-03-02T03:44:45;51.43;;;21.40;;
29280;SDS011;25048;49.590;11.026;2024-03-02T03:47:12;49.30;;;21.47;;
29280;SDS011;25048;49.590;11.026;2024-03-02T03:49:40;50.57;;;23.10;;
29280;SDS011;25048;49.590;11.026;2024-03-02T03:52:07;45.77;;;21.87;;
29280;SDS011;25048;49.590;11.026;2024-03-02T03:54:35;50.53;;;22.00;;
29280;SDS011;25048;49.590;11.026;2024-03-02T03:57:04;49.33;;;22.47;;
29280;SDS011;25048;49.590;11.026;2024-03-02T03:59:32;59.43;;;24.07;;
29280;SDS011;25048;49.590;11.026;2024-03-02T04:02:00;49.67;;;21.47;;
29280;SDS011;25048;49.590;11.026;2024-03-02T04:04:28;54.20;;;24.13;;
29280;SDS011;25048;49.590;11.026;2024-03-02T04:06:56;51.57;;;22.13;;
29280;SDS011;25048;49.590;11.026;2024-03-02T04:09:23;50.03;;;21.07;;
29280;SDS011;25048;49.590;11.026;2024-03-02T04:11:51;50.47;;;21.77;;
29280;SDS011;25048;49.590;11.026;2024-03-02T04:14:19;43.20;;;20.27;;
29280;SDS011;25048;49.590;11.026;2024-03-02T04:16:47;54.07;;;22.30;;
29280;SDS011;25048;49.590;11.026;2024-03-02T04:19:14;50.57;;;21.37;;
29280;SDS011;25048;49.590;11.026;2024-03-02T04:21:42;50.80;;;20.60;;
29280;SDS011;25048;49.590;11.026;2024-03-02T04:24:10;45.10;;;20.73;;
29280;SDS011;25048;49.590;11.026;2024-03-02T04:26:37;53.07;;;21.17;;
29280;SDS011;25048;49.590;11.026;2024-03-02T04:29:05;48.10;;;20.57;;
29280;SDS011;25048;49.590;11.026;2024-03-02T04:31:32;49.27;;;20.17;;
29280;SDS011;25048;49.590;11.026;2024-03-02T04:34:00;46.83;;;20.63;;
29280;SDS011;25048;49.590;11.026;2024-03-02T04:36:28;45.77;;;19.97;;
29280;SDS011;25048;49.590;11.026;2024-03-02T04:38:55;43.27;;;18.97;;
29280;SDS011;25048;49.590;11.026;2024-03-02T04:41:23;44.00;;;19.97;;
29280;SDS011;25048;49.590;11.026;2024-03-02T04:43:50;45.23;;;19.17;;
29280;SDS011;25048;49.590;11.026;2024-03-02T04:46:18;47.97;;;19.00;;
29280;SDS011;25048;49.590;11.026;2024-03-02T04:48:45;42.43;;;18.33;;
29280;SDS011;25048;49.590;11.026;2024-03-02T04:51:14;46.87;;;19.57;;
29280;SDS011;25048;49.590;11.026;2024-03-02T04:53:41;45.17;;;19.67;;
29280;SDS011;25048;49.590;11.026;2024-03-02T04:56:09;45.43;;;19.87;;
29280;SDS011;25048;49.590;11.026;2024-03-02T04:58:50;43.40;;;17.80;;
29280;SDS011;25048;49.590;11.026;2024-03-02T05:01:17;40.93;;;18.63;;
29280;SDS011;25048;49.590;11.026;2024-03-02T05:03:45;45.63;;;18.43;;
29280;SDS011;25048;49.590;11.026;2024-03-02T05:06:12;44.47;;;18.87;;
29280;SDS011;25048;49.590;11.026;2024-03-02T05:08:40;41.73;;;18.13;;
29280;SDS011;25048;49.590;11.026;2024-03-02T05:11:07;40.87;;;19.10;;
29280;SDS011;25048;49.590;11.026;2024-03-02T05:13:53;38.33;;;17.53;;
29280;SDS011;25048;49.590;11.026;2024-03-02T05:16:20;41.40;;;17.80;;
29280;SDS011;25048;49.590;11.026;2024-03-02T05:18:48;40.33;;;17.13;;
29280;SDS011;25048;49.590;11.026;2024-03-02T05:21:15;47.33;;;18.57;;
29280;SDS011;25048;49.590;11.026;2024-03-02T05:23:43;36.67;;;17.20;;
29280;SDS011;25048;49.590;11.026;2024-03-02T05:26:10;41.20;;;17.83;;
29280;SDS011;25048;49.590;11.026;2024-03-02T05:28:39;39.37;;;17.57;;
29280;SDS011;25048;49.590;11.026;2024-03-02T05:31:09;46.13;;;17.80;;
29280;SDS011;25048;49.590;11.026;2024-03-02T05:33:40;38.93;;;17.93;;
29280;SDS011;25048;49.590;11.026;2024-03-02T05:36:08;42.27;;;18.33;;
29280;SDS011;25048;49.590;11.026;2024-03-02T05:38:36;50.73;;;19.33;;
29280;SDS011;25048;49.590;11.026;2024-03-02T05:41:04;48.17;;;18.00;;
29280;SDS011;25048;49.590;11.026;2024-03-02T05:43:31;52.77;;;19.00;;
29280;SDS011;25048;49.590;11.026;2024-03-02T05:45:59;44.93;;;18.43;;
29280;SDS011;25048;49.590;11.026;2024-03-02T05:48:27;46.97;;;18.03;;
29280;SDS011;25048;49.590;11.026;2024-03-02T05:50:54;43.07;;;18.27;;
29280;SDS011;25048;49.590;11.026;2024-03-02T05:53:22;44.33;;;19.83;;
29280;SDS011;25048;49.590;11.026;2024-03-02T05:55:49;49.60;;;18.50;;
29280;SDS011;25048;49.590;11.026;2024-03-02T05:58:19;42.40;;;18.37;;
29280;SDS011;25048;49.590;11.026;2024-03-02T06:01:04;52.70;;;19.90;;
29280;SDS011;25048;49.590;11.026;2024-03-02T06:03:32;43.93;;;18.43;;
29280;SDS011;25048;49.590;11.026;2024-03-02T06:05:59;50.90;;;19.33;;
29280;SDS011;25048;49.590;11.026;2024-03-02T06:08:27;45.60;;;18.10;;
29280;SDS011;25048;49.590;11.026;2024-03-02T06:10:54;41.50;;;17.67;;
29280;SDS011;25048;49.590;11.026;2024-03-02T06:13:22;37.43;;;17.80;;
29280;SDS011;25048;49.590;11.026;2024-03-02T06:15:51;47.17;;;18.53;;
29280;SDS011;25048;49.590;11.026;2024-03-02T06:18:19;42.93;;;18.23;;
29280;SDS011;25048;49.590;11.026;2024-03-02T06:20:46;44.50;;;18.43;;
29280;SDS011;25048;49.590;11.026;2024-03-02T06:23:15;42.40;;;17.67;;
29280;SDS011;25048;49.590;11.026;2024-03-02T06:25:42;55.90;;;20.50;;
29280;SDS011;25048;49.590;11.026;2024-03-02T06:28:09;47.20;;;17.13;;
29280;SDS011;25048;49.590;11.026;2024-03-02T06:30:37;54.30;;;19.77;;
29280;SDS011;25048;49.590;11.026;2024-03-02T06:33:05;46.63;;;18.33;;
29280;SDS011;25048;49.590;11.026;2024-03-02T06:35:32;47.07;;;18.17;;
29280;SDS011;25048;49.590;11.026;2024-03-02T06:38:01;48.67;;;20.27;;
29280;SDS011;25048;49.590;11.026;2024-03-02T06:40:28;51.97;;;19.23;;
29280;SDS011;25048;49.590;11.026;2024-03-02T06:42:56;50.00;;;19.93;;
29280;SDS011;25048;49.590;11.026;2024-03-02T06:45:23;48.10;;;18.37;;
29280;SDS011;25048;49.590;11.026;2024-03-02T06:47:51;44.33;;;18.03;;
29280;SDS011;25048;49.590;11.026;2024-03-02T06:50:18;49.53;;;18.00;;
29280;SDS011;25048;49.590;11.026;2024-03-02T06:52:46;46.97;;;18.73;;
29280;SDS011;25048;49.590;11.026;2024-03-02T06:55:13;45.53;;;18.50;;
29280;SDS011;25048;49.590;11.026;2024-03-02T06:57:41;46.60;;;18.47;;
29280;SDS011;25048;49.590;11.026;2024-03-02T07:00:10;46.00;;;17.70;;
29280;SDS011;25048;49.590;11.026;2024-03-02T07:02:38;47.43;;;18.13;;
29280;SDS011;25048;49.590;11.026;2024-03-02T07:05:07;41.50;;;18.13;;
29280;SDS011;25048;49.590;11.026;2024-03-02T07:07:35;50.53;;;19.37;;
29280;SDS011;25048;49.590;11.026;2024-03-02T07:10:03;44.37;;;18.00;;
29280;SDS011;25048;49.590;11.026;2024-03-02T07:12:33;47.73;;;19.77;;
29280;SDS011;25048;49.590;11.026;2024-03-02T07:15:00;55.77;;;20.27;;
29280;SDS011;25048;49.590;11.026;2024-03-02T07:17:30;55.00;;;20.03;;
29280;SDS011;25048;49.590;11.026;2024-03-02T07:19:58;58.60;;;22.63;;
29280;SDS011;25048;49.590;11.026;2024-03-02T07:22:26;53.70;;;21.43;;
29280;SDS011;25048;49.590;11.026;2024-03-02T07:24:53;54.73;;;22.13;;
29280;SDS011;25048;49.590;11.026;2024-03-02T07:27:21;57.77;;;22.37;;
29280;SDS011;25048;49.590;11.026;2024-03-02T07:29:49;61.03;;;23.77;;
29280;SDS011;25048;49.590;11.026;2024-03-02T07:32:16;64.67;;;24.10;;
29280;SDS011;25048;49.590;11.026;2024-03-02T07:34:44;66.83;;;26.27;;
29280;SDS011;25048;49.590;11.026;2024-03-02T07:37:11;66.07;;;24.00;;
29280;SDS011;25048;49.590;11.026;2024-03-02T07:39:39;60.80;;;22.67;;
29280;SDS011;25048;49.590;11.026;2024-03-02T07:42:06;57.03;;;22.30;;
29280;SDS011;25048;49.590;11.026;2024-03-02T07:44:34;54.87;;;21.23;;
29280;SDS011;25048;49.590;11.026;2024-03-02T07:47:01;49.27;;;21.70;;
29280;SDS011;25048;49.590;11.026;2024-03-02T07:49:29;53.97;;;21.73;;
29280;SDS011;25048;49.590;11.026;2024-03-02T07:51:57;47.27;;;20.60;;
29280;SDS011;25048;49.590;11.026;2024-03-02T07:54:24;48.50;;;20.83;;
29280;SDS011;25048;49.590;11.026;2024-03-02T07:56:52;46.93;;;18.27;;
29280;SDS011;25048;49.590;11.026;2024-03-02T07:59:19;41.00;;;18.30;;
29280;SDS011;25048;49.590;11.026;2024-03-02T08:01:48;43.63;;;17.97;;
29280;SDS011;25048;49.590;11.026;2024-03-02T08:04:20;35.03;;;17.60;;
29280;SDS011;25048;49.590;11.026;2024-03-02T08:06:49;32.53;;;16.47;;
29280;SDS011;25048;49.590;11.026;2024-03-02T08:09:16;32.43;;;17.03;;
29280;SDS011;25048;49.590;11.026;2024-03-02T08:11:44;34.13;;;16.17;;
29280;SDS011;25048;49.590;11.026;2024-03-02T08:14:11;29.47;;;16.47;;
29280;SDS011;25048;49.590;11.026;2024-03-02T08:16:39;27.60;;;14.80;;
29280;SDS011;25048;49.590;11.026;2024-03-02T08:19:07;23.47;;;12.87;;
29280;SDS011;25048;49.590;11.026;2024-03-02T08:21:36;28.47;;;15.00;;
29280;SDS011;25048;49.590;11.026;2024-03-02T08:24:03;23.90;;;14.13;;
29280;SDS011;25048;49.590;11.026;2024-03-02T08:26:31;28.37;;;14.40;;
29280;SDS011;25048;49.590;11.026;2024-03-02T08:28:59;28.23;;;13.63;;
29280;SDS011;25048;49.590;11.026;2024-03-02T08:31:30;31.83;;;14.27;;
29280;SDS011;25048;49.590;11.026;2024-03-02T08:33:57;28.90;;;14.10;;
29280;SDS011;25048;49.590;11.026;2024-03-02T08:36:26;28.27;;;14.37;;
29280;SDS011;25048;49.590;11.026;2024-03-02T08:38:53;26.70;;;13.87;;
29280;SDS011;25048;49.590;11.026;2024-03-02T08:41:21;23.40;;;12.47;;
29280;SDS011;25048;49.590;11.026;2024-03-02T08:43:49;25.57;;;12.70;;
29280;SDS011;25048;49.590;11.026;2024-03-02T08:46:16;23.27;;;11.90;;
29280;SDS011;25048;49.590;11.026;2024-03-02T08:48:44;23.17;;;12.53;;
29280;SDS011;25048;49.590;11.026;2024-03-02T08:51:11;23.33;;;12.00;;
29280;SDS011;25048;49.590;11.026;2024-03-02T08:53:39;20.70;;;11.50;;
29280;SDS011;25048;49.590;11.026;2024-03-02T08:56:06;22.83;;;11.37;;
29280;SDS011;25048;49.590;11.026;2024-03-02T08:58:34;21.63;;;11.53;;
29280;SDS011;25048;49.590;11.026;2024-03-02T09:01:02;20.57;;;11.10;;
29280;SDS011;25048;49.590;11.026;2024-03-02T09:03:29;20.40;;;11.47;;
29280;SDS011;25048;49.590;11.026;2024-03-02T09:05:58;21.17;;;11.50;;
29280;SDS011;25048;49.590;11.026;2024-03-02T09:08:26;20.67;;;11.10;;
29280;SDS011;25048;49.590;11.026;2024-03-02T09:10:54;20.60;;;10.67;;
29280;SDS011;25048;49.590;11.026;2024-03-02T09:13:22;20.97;;;11.13;;
29280;SDS011;25048;49.590;11.026;2024-03-02T09:15:50;19.17;;;10.08;;
29280;SDS011;25048;49.590;11.026;2024-03-02T09:18:17;16.73;;;9.50;;
29280;SDS011;25048;49.590;11.026;2024-03-02T09:20:45;16.80;;;9.30;;
29280;SDS011;25048;49.590;11.026;2024-03-02T09:23:12;18.20;;;9.43;;
29280;SDS011;25048;49.590;11.026;2024-03-02T09:25:40;17.27;;;9.27;;
29280;SDS011;25048;49.590;11.026;2024-03-02T09:28:08;16.70;;;9.10;;
29280;SDS011;25048;49.590;11.026;2024-03-02T09:30:36;15.13;;;8.05;;
29280;SDS011;25048;49.590;11.026;2024-03-02T09:33:04;14.65;;;8.33;;
29280;SDS011;25048;49.590;11.026;2024-03-02T09:35:32;14.05;;;7.92;;
29280;SDS011;25048;49.590;11.026;2024-03-02T09:37:59;13.95;;;7.55;;
29280;SDS011;25048;49.590;11.026;2024-03-02T09:40:27;13.13;;;7.55;;
29280;SDS011;25048;49.590;11.026;2024-03-02T09:42:54;9.73;;;6.45;;
29280;SDS011;25048;49.590;11.026;2024-03-02T09:45:23;12.37;;;7.13;;
29280;SDS011;25048;49.590;11.026;2024-03-02T09:47:52;11.75;;;5.72;;
29280;SDS011;25048;49.590;11.026;2024-03-02T09:50:20;10.38;;;6.47;;
29280;SDS011;25048;49.590;11.026;2024-03-02T09:52:48;10.82;;;6.33;;
29280;SDS011;25048;49.590;11.026;2024-03-02T09:55:16;10.55;;;6.28;;
29280;SDS011;25048;49.590;11.026;2024-03-02T09:57:45;7.83;;;5.12;;
29280;SDS011;25048;49.590;11.026;2024-03-02T10:00:15;8.45;;;4.97;;
29280;SDS011;25048;49.590;11.026;2024-03-02T10:02:43;11.00;;;6.30;;
29280;SDS011;25048;49.590;11.026;2024-03-02T10:05:12;9.55;;;5.10;;
29280;SDS011;25048;49.590;11.026;2024-03-02T10:07:40;9.75;;;5.70;;
29280;SDS011;25048;49.590;11.026;2024-03-02T10:10:14;9.00;;;4.97;;
29280;SDS011;25048;49.590;11.026;2024-03-02T10:12:42;7.80;;;4.97;;
29280;SDS011;25048;49.590;11.026;2024-03-02T10:15:10;9.58;;;5.53;;
29280;SDS011;25048;49.590;11.026;2024-03-02T10:17:37;9.00;;;5.42;;
29280;SDS011;25048;49.590;11.026;2024-03-02T10:20:24;9.20;;;5.67;;
29280;SDS011;25048;49.590;11.026;2024-03-02T10:22:54;7.70;;;4.80;;
29280;SDS011;25048;49.590;11.026;2024-03-02T10:25:29;8.50;;;5.10;;
29280;SDS011;25048;49.590;11.026;2024-03-02T10:27:58;11.18;;;5.35;;
29280;SDS011;25048;49.590;11.026;2024-03-02T10:30:27;11.70;;;5.10;;
29280;SDS011;25048;49.590;11.026;2024-03-02T10:32:55;7.92;;;5.22;;
29280;SDS011;25048;49.590;11.026;2024-03-02T10:35:23;9.43;;;5.45;;
29280;SDS011;25048;49.590;11.026;2024-03-02T10:37:54;7.97;;;5.22;;
29280;SDS011;25048;49.590;11.026;2024-03-02T10:40:22;7.22;;;5.20;;
29280;SDS011;25048;49.590;11.026;2024-03-02T10:42:50;7.85;;;5.10;;
29280;SDS011;25048;49.590;11.026;2024-03-02T10:45:19;8.18;;;5.20;;
29280;SDS011;25048;49.590;11.026;2024-03-02T10:47:49;9.83;;;5.97;;
29280;SDS011;25048;49.590;11.026;2024-03-02T10:50:17;7.00;;;5.08;;
29280;SDS011;25048;49.590;11.026;2024-03-02T10:52:44;9.48;;;5.85;;
29280;SDS011;25048;49.590;11.026;2024-03-02T10:55:12;12.18;;;5.90;;
29280;SDS011;25048;49.590;11.026;2024-03-02T10:57:50;10.03;;;6.12;;
29280;SDS011;25048;49.590;11.026;2024-03-02T11:00:19;7.87;;;5.72;;
29280;SDS011;25048;49.590;11.026;2024-03-02T11:02:52;9.85;;;6.03;;
29280;SDS011;25048;49.590;11.026;2024-03-02T11:05:28;8.03;;;5.30;;
29280;SDS011;25048;49.590;11.026;2024-03-02T11:08:08;7.30;;;5.00;;
29280;SDS011;25048;49.590;11.026;2024-03-02T11:10:37;7.03;;;5.00;;
29280;SDS011;25048;49.590;11.026;2024-03-02T11:13:11;8.18;;;5.47;;
29280;SDS011;25048;49.590;11.026;2024-03-02T11:15:43;9.13;;;5.17;;
29280;SDS011;25048;49.590;11.026;2024-03-02T11:18:11;9.00;;;5.60;;
29280;SDS011;25048;49.590;11.026;2024-03-02T11:20:40;7.30;;;4.80;;
29280;SDS011;25048;49.590;11.026;2024-03-02T11:23:09;8.93;;;5.95;;
29280;SDS011;25048;49.590;11.026;2024-03-02T11:25:36;10.35;;;5.53;;
29280;SDS011;25048;49.590;11.026;2024-03-02T11:28:06;9.13;;;5.70;;
29280;SDS011;25048;49.590;11.026;2024-03-02T11:33:08;8.83;;;6.40;;
29280;SDS011;25048;49.590;11.026;2024-03-02T11:35:36;10.23;;;5.65;;
29280;SDS011;25048;49.590;11.026;2024-03-02T11:38:04;10.10;;;5.92;;
29280;SDS011;25048;49.590;11.026;2024-03-02T11:40:33;9.08;;;6.00;;
29280;SDS011;25048;49.590;11.026;2024-03-02T11:43:01;8.10;;;5.75;;
29280;SDS011;25048;49.590;11.026;2024-03-02T11:45:29;8.18;;;5.35;;
29280;SDS011;25048;49.590;11.026;2024-03-02T11:47:59;8.95;;;5.83;;
29280;SDS011;25048;49.590;11.026;2024-03-02T11:50:30;13.53;;;6.83;;
29280;SDS011;25048;49.590;11.026;2024-03-02T11:53:08;10.55;;;7.33;;
29280;SDS011;25048;49.590;11.026;2024-03-02T11:55:38;10.75;;;6.80;;
29280;SDS011;25048;49.590;11.026;2024-03-02T11:58:07;9.58;;;6.28;;
29280;SDS011;25048;49.590;11.026;2024-03-02T12:00:34;11.40;;;7.30;;
29280;SDS011;25048;49.590;11.026;2024-03-02T12:03:05;11.85;;;7.35;;
29280;SDS011;25048;49.590;11.026;2024-03-02T12:05:35;11.08;;;7.37;;
29280;SDS011;25048;49.590;11.026;2024-03-02T12:08:03;10.85;;;7.95;;
29280;SDS011;25048;49.590;11.026;2024-03-02T12:10:35;7.72;;;5.75;;
29280;SDS011;25048;49.590;11.026;2024-03-02T12:13:05;7.83;;;5.40;;
29280;SDS011;25048;49.590;11.026;2024-03-02T12:15:35;7.97;;;5.20;;
29280;SDS011;25048;49.590;11.026;2024-03-02T12:18:05;8.88;;;5.83;;
29280;SDS011;25048;49.590;11.026;2024-03-02T12:20:33;7.90;;;5.17;;
29280;SDS011;25048;49.590;11.026;2024-03-02T12:23:01;7.37;;;5.47;;
29280;SDS011;25048;49.590;11.026;2024-03-02T12:25:31;8.33;;;5.45;;
29280;SDS011;25048;49.590;11.026;2024-03-02T12:28:00;8.30;;;5.58;;
29280;SDS011;25048;49.590;11.026;2024-03-02T12:30:32;9.28;;;5.42;;
29280;SDS011;25048;49.590;11.026;2024-03-02T12:33:02;10.28;;;5.75;;
29280;SDS011;25048;49.590;11.026;2024-03-02T12:35:30;9.33;;;5.55;;
29280;SDS011;25048;49.590;11.026;2024-03-02T12:37:57;11.00;;;6.30;;
29280;SDS011;25048;49.590;11.026;2024-03-02T12:40:25;10.10;;;5.83;;
29280;SDS011;25048;49.590;11.026;2024-03-02T12:42:53;12.07;;;6.87;;
29280;SDS011;25048;49.590;11.026;2024-03-02T12:45:20;11.03;;;6.58;;
29280;SDS011;25048;49.590;11.026;2024-03-02T12:47:51;12.73;;;6.40;;
29280;SDS011;25048;49.590;11.026;2024-03-02T12:50:19;10.23;;;6.28;;
29280;SDS011;25048;49.590;11.026;2024-03-02T12:52:55;13.20;;;6.78;;
29280;SDS011;25048;49.590;11.026;2024-03-02T12:55:21;10.80;;;6.78;;
29280;SDS011;25048;49.590;11.026;2024-03-02T12:57:50;12.05;;;6.95;;
29280;SDS011;25048;49.590;11.026;2024-03-02T13:00:18;13.30;;;8.03;;
29280;SDS011;25048;49.590;11.026;2024-03-02T13:02:47;11.60;;;7.20;;
29280;SDS011;25048;49.590;11.026;2024-03-02T13:05:16;14.58;;;8.03;;
29280;SDS011;25048;49.590;11.026;2024-03-02T13:07:46;14.13;;;8.40;;
29280;SDS011;25048;49.590;11.026;2024-03-02T13:10:17;15.23;;;8.55;;
29280;SDS011;25048;49.590;11.026;2024-03-02T13:12:44;13.08;;;7.80;;
29280;SDS011;25048;49.590;11.026;2024-03-02T13:15:12;17.80;;;8.98;;
29280;SDS011;25048;49.590;11.026;2024-03-02T13:17:39;12.20;;;7.80;;
29280;SDS011;25048;49.590;11.026;2024-03-02T13:20:07;15.90;;;9.45;;
29280;SDS011;25048;49.590;11.026;2024-03-02T13:22:36;13.75;;;8.03;;
29280;SDS011;25048;49.590;11.026;2024-03-02T13:25:04;14.20;;;8.48;;
29280;SDS011;25048;49.590;11.026;2024-03-02T13:27:33;11.03;;;7.58;;
29280;SDS011;25048;49.590;11.026;2024-03-02T13:30:04;12.30;;;7.85;;
29280;SDS011;25048;49.590;11.026;2024-03-02T13:32:34;13.98;;;8.18;;
29280;SDS011;25048;49.590;11.026;2024-03-02T13:35:01;13.22;;;8.28;;
29280;SDS011;25048;49.590;11.026;2024-03-02T13:37:29;15.55;;;9.58;;
29280;SDS011;25048;49.590;11.026;2024-03-02T13:39:57;15.43;;;8.83;;
29280;SDS011;25048;49.590;11.026;2024-03-02T13:42:24;15.40;;;8.65;;
29280;SDS011;25048;49.590;11.026;2024-03-02T13:44:53;15.30;;;8.55;;
29280;SDS011;25048;49.590;11.026;2024-03-02T13:47:20;12.40;;;7.78;;
29280;SDS011;25048;49.590;11.026;2024-03-02T13:49:48;12.47;;;8.05;;
29280;SDS011;25048;49.590;11.026;2024-03-02T13:52:15;14.43;;;8.48;;
29280;SDS011;25048;49.590;11.026;2024-03-02T13:54:44;14.30;;;7.90;;
29280;SDS011;25048;49.590;11.026;2024-03-02T13:57:13;13.43;;;7.72;;
29280;SDS011;25048;49.590;11.026;2024-03-02T13:59:41;13.58;;;7.30;;
29280;SDS011;25048;49.590;11.026;2024-03-02T14:02:10;12.18;;;6.80;;
29280;SDS011;25048;49.590;11.026;2024-03-02T14:04:38;13.28;;;7.22;;
29280;SDS011;25048;49.590;11.026;2024-03-02T14:07:06;11.25;;;6.85;;
29280;SDS011;25048;49.590;11.026;2024-03-02T14:09:34;10.70;;;6.95;;
29280;SDS011;25048;49.590;11.026;2024-03-02T14:12:01;12.30;;;6.33;;
29280;SDS011;25048;49.590;11.026;2024-03-02T14:14:30;12.60;;;6.37;;
29280;SDS011;25048;49.590;11.026;2024-03-02T14:16:58;10.40;;;6.25;;
29280;SDS011;25048;49.590;11.026;2024-03-02T14:19:28;9.50;;;5.97;;
29280;SDS011;25048;49.590;11.026;2024-03-02T14:21:56;11.33;;;6.58;;
29280;SDS011;25048;49.590;11.026;2024-03-02T14:24:23;9.83;;;5.65;;
29280;SDS011;25048;49.590;11.026;2024-03-02T14:26:52;11.48;;;6.25;;
29280;SDS011;25048;49.590;11.026;2024-03-02T14:29:20;11.70;;;6.72;;